createdAt,value
2022-10-15T00:00:48.406Z,11.00
2022-10-15T00:03:15.637Z,10.90
2022-10-15T00:05:43.027Z,9.98
2022-10-15T00:08:10.906Z,10.10
2022-10-15T00:10:38.544Z,9.73
2022-10-15T00:13:06.559Z,11.18
2022-10-15T00:15:35.990Z,10.55
2022-10-15T00:18:02.691Z,11.75
2022-10-15T00:20:30.194Z,10.48
2022-10-15T00:22:56.956Z,10.73
2022-10-15T00:25:23.702Z,13.55
2022-10-15T00:27:50.408Z,11.50
2022-10-15T00:30:17.152Z,10.70
2022-10-15T00:32:46.370Z,12.15
2022-10-15T00:35:13.096Z,10.50
2022-10-15T00:37:39.915Z,10.73
2022-10-15T00:40:08.495Z,11.02
2022-10-15T00:42:35.196Z,10.98
2022-10-15T00:45:01.958Z,13.50
2022-10-15T00:47:40.327Z,11.60
2022-10-15T00:50:14.475Z,12.05
2022-10-15T00:52:46.354Z,10.73
2022-10-15T00:55:22.562Z,11.98
2022-10-15T00:57:50.586Z,11.90
2022-10-15T01:00:18.876Z,13.68
2022-10-15T01:05:14.977Z,12.00
2022-10-15T01:07:41.820Z,11.60
2022-10-15T01:10:10.564Z,11.23
2022-10-15T01:12:59.940Z,11.70
2022-10-15T01:15:56.995Z,11.32
2022-10-15T01:18:38.390Z,11.68
2022-10-15T01:21:14.209Z,16.13
2022-10-15T01:24:14.320Z,13.68
2022-10-15T01:27:09.787Z,11.88
2022-10-15T01:29:47.772Z,12.30
2022-10-15T01:32:35.848Z,11.95
2022-10-15T01:35:34.972Z,13.25
2022-10-15T01:38:10.521Z,12.70
2022-10-15T01:40:50.064Z,11.65
2022-10-15T01:43:25.331Z,12.68
2022-10-15T01:45:57.571Z,12.05
2022-10-15T01:48:27.275Z,14.00
2022-10-15T01:50:58.257Z,12.90
2022-10-15T01:53:27.104Z,12.85
2022-10-15T01:56:17.697Z,13.48
2022-10-15T01:58:46.996Z,13.93
2022-10-15T02:01:13.874Z,11.48
2022-10-15T02:03:49.449Z,13.52
2022-10-15T02:06:28.957Z,13.63
2022-10-15T02:08:55.758Z,13.98
2022-10-15T02:11:22.532Z,14.65
2022-10-15T02:14:02.047Z,13.30
2022-10-15T02:16:43.585Z,13.55
2022-10-15T02:19:30.732Z,14.00
2022-10-15T02:22:11.429Z,12.87
2022-10-15T02:24:50.533Z,14.18
2022-10-15T02:27:21.865Z,13.35
2022-10-15T02:29:51.359Z,13.98
2022-10-15T02:32:23.605Z,15.05
2022-10-15T02:34:54.704Z,15.05
2022-10-15T02:37:24.355Z,14.10
2022-10-15T02:39:51.297Z,14.10
2022-10-15T02:42:18.843Z,14.73
2022-10-15T02:44:45.647Z,16.80
2022-10-15T02:47:12.571Z,13.57
2022-10-15T02:49:39.625Z,14.05
2022-10-15T02:52:06.438Z,15.45
2022-10-15T02:54:33.315Z,13.88
2022-10-15T02:57:00.100Z,18.27
2022-10-15T02:59:26.878Z,14.68
2022-10-15T03:01:53.591Z,14.82
2022-10-15T03:04:20.385Z,14.93
2022-10-15T03:06:47.111Z,15.13
2022-10-15T03:09:13.904Z,16.02
2022-10-15T03:11:40.798Z,14.00
2022-10-15T03:14:07.588Z,15.23
2022-10-15T03:16:34.351Z,15.32
2022-10-15T03:19:01.051Z,17.67
2022-10-15T03:21:30.850Z,17.13
2022-10-15T03:23:59.061Z,16.20
2022-10-15T03:28:52.610Z,15.40
2022-10-15T03:31:19.643Z,17.38
2022-10-15T03:33:46.830Z,16.02
2022-10-15T03:36:13.654Z,16.63
2022-10-15T03:38:40.424Z,14.52
2022-10-15T03:41:07.515Z,16.10
2022-10-15T03:43:37.406Z,16.08
2022-10-15T03:46:07.053Z,15.80
2022-10-15T03:48:33.774Z,15.95
2022-10-15T03:51:00.522Z,16.27
2022-10-15T03:53:27.790Z,16.08
2022-10-15T03:55:54.497Z,15.68
2022-10-15T03:58:21.260Z,15.50
2022-10-15T04:00:48.033Z,16.67
2022-10-15T04:03:14.843Z,16.95
2022-10-15T04:05:41.553Z,15.65
2022-10-15T04:08:08.351Z,17.13
2022-10-15T04:10:35.507Z,16.42
2022-10-15T04:13:02.275Z,18.50
2022-10-15T04:15:29.491Z,15.90
2022-10-15T04:17:56.295Z,16.13
2022-10-15T04:20:23.076Z,17.13
2022-10-15T04:22:49.824Z,16.30
2022-10-15T04:25:17.176Z,16.30
2022-10-15T04:27:43.956Z,16.43
2022-10-15T04:30:11.645Z,16.20
2022-10-15T04:32:38.371Z,20.73
2022-10-15T04:35:06.157Z,19.15
2022-10-15T04:37:34.210Z,16.40
2022-10-15T04:40:01.222Z,16.83
2022-10-15T04:42:29.886Z,16.10
2022-10-15T04:44:56.931Z,17.27
2022-10-15T04:47:23.937Z,17.55
2022-10-15T04:49:50.872Z,16.20
2022-10-15T04:52:17.558Z,16.73
2022-10-15T04:54:44.364Z,15.38
2022-10-15T04:57:11.076Z,16.73
2022-10-15T04:59:38.022Z,15.75
2022-10-15T05:02:04.894Z,15.57
2022-10-15T05:04:31.831Z,17.45
2022-10-15T05:06:58.545Z,16.83
2022-10-15T05:09:25.331Z,15.77
2022-10-15T05:11:52.319Z,16.08
2022-10-15T05:14:21.858Z,16.70
2022-10-15T05:16:48.581Z,16.73
2022-10-15T05:19:16.882Z,16.08
2022-10-15T05:24:11.187Z,16.65
2022-10-15T05:26:38.127Z,15.93
2022-10-15T05:29:05.075Z,14.95
2022-10-15T05:31:33.533Z,17.40
2022-10-15T05:34:05.908Z,15.30
2022-10-15T05:36:32.688Z,14.65
2022-10-15T05:39:01.644Z,17.17
2022-10-15T05:41:29.505Z,16.10
2022-10-15T05:43:57.849Z,16.33
2022-10-15T05:46:25.380Z,15.98
2022-10-15T05:48:53.898Z,15.50
2022-10-15T05:51:20.796Z,16.08
2022-10-15T05:53:47.721Z,15.95
2022-10-15T05:56:15.568Z,15.60
2022-10-15T05:58:42.313Z,15.00
2022-10-15T06:01:11.825Z,17.85
2022-10-15T06:03:42.917Z,14.55
2022-10-15T06:06:25.074Z,15.95
2022-10-15T06:08:53.099Z,14.95
2022-10-15T06:11:20.867Z,16.23
2022-10-15T06:13:50.329Z,15.57
2022-10-15T06:16:21.140Z,15.30
2022-10-15T06:18:53.235Z,16.13
2022-10-15T06:21:20.730Z,15.32
2022-10-15T06:23:48.063Z,15.18
2022-10-15T06:26:14.805Z,15.37
2022-10-15T06:28:42.104Z,16.00
2022-10-15T06:31:09.563Z,15.27
2022-10-15T06:33:36.895Z,15.95
2022-10-15T06:36:09.362Z,15.60
2022-10-15T06:38:37.200Z,15.18
2022-10-15T06:41:05.495Z,15.05
2022-10-15T06:43:34.833Z,16.30
2022-10-15T06:46:03.489Z,15.10
2022-10-15T06:48:30.713Z,14.32
2022-10-15T06:50:59.546Z,15.30
2022-10-15T06:53:29.046Z,14.57
2022-10-15T06:56:03.127Z,14.50
2022-10-15T06:58:30.769Z,15.23
2022-10-15T07:01:06.864Z,14.32
2022-10-15T07:03:34.148Z,14.95
2022-10-15T07:06:05.746Z,16.63
2022-10-15T07:08:33.435Z,14.77
2022-10-15T07:11:09.207Z,14.52
2022-10-15T07:13:36.250Z,14.25
2022-10-15T07:16:09.228Z,14.48
2022-10-15T07:18:37.012Z,14.02
2022-10-15T07:21:05.672Z,14.68
2022-10-15T07:23:32.644Z,16.50
2022-10-15T07:26:00.812Z,14.27
2022-10-15T07:28:27.806Z,13.77
2022-10-15T07:30:54.631Z,14.35
2022-10-15T07:33:21.402Z,13.50
2022-10-15T07:35:48.349Z,13.75
2022-10-15T07:38:15.149Z,13.55
2022-10-15T07:40:41.852Z,14.25
2022-10-15T07:43:08.570Z,13.82
2022-10-15T07:45:36.088Z,13.60
2022-10-15T07:48:02.942Z,15.25
2022-10-15T07:50:32.376Z,13.13
2022-10-15T07:53:02.272Z,14.63
2022-10-15T07:55:28.952Z,17.90
2022-10-15T07:57:59.131Z,22.13
2022-10-15T08:00:26.138Z,20.55
2022-10-15T08:02:52.868Z,21.70
2022-10-15T08:05:19.612Z,21.98
2022-10-15T08:07:46.353Z,24.67
2022-10-15T08:10:13.621Z,24.67
2022-10-15T08:12:40.426Z,20.67
2022-10-15T08:15:07.718Z,17.27
2022-10-15T08:17:34.442Z,23.25
2022-10-15T08:20:01.135Z,19.52
2022-10-15T08:22:27.844Z,15.57
2022-10-15T08:24:56.794Z,14.45
2022-10-15T08:27:23.676Z,14.45
2022-10-15T08:29:50.399Z,14.57
2022-10-15T08:32:17.124Z,16.45
2022-10-15T08:34:43.873Z,18.02
2022-10-15T08:37:10.647Z,16.08
2022-10-15T08:39:37.407Z,13.50
2022-10-15T08:42:18.565Z,16.02
2022-10-15T08:44:55.219Z,12.38
2022-10-15T08:47:27.902Z,14.43
2022-10-15T08:49:57.259Z,14.77
2022-10-15T08:52:38.927Z,20.17
2022-10-15T08:55:06.031Z,13.15
2022-10-15T08:57:54.719Z,14.20
2022-10-15T09:00:28.754Z,12.77
2022-10-15T09:03:33.634Z,12.30
2022-10-15T09:06:18.081Z,16.25
2022-10-15T09:08:51.996Z,14.38
2022-10-15T09:11:36.485Z,12.85
2022-10-15T09:14:06.016Z,12.55
2022-10-15T09:16:39.136Z,12.63
2022-10-15T09:19:15.548Z,14.88
2022-10-15T09:21:43.107Z,12.32
2022-10-15T09:24:13.381Z,11.98
2022-10-15T09:27:11.213Z,12.10
2022-10-15T09:32:44.615Z,12.98
2022-10-15T09:35:21.734Z,14.35
2022-10-15T09:38:06.176Z,12.77
2022-10-15T09:41:16.209Z,14.57
2022-10-15T09:43:46.804Z,12.32
2022-10-15T09:46:13.744Z,12.10
2022-10-15T09:48:53.795Z,11.98
2022-10-15T09:51:29.803Z,13.00
2022-10-15T09:54:37.157Z,16.40
2022-10-15T09:57:03.932Z,11.27
2022-10-15T10:02:18.742Z,12.35
2022-10-15T10:04:45.606Z,11.30
2022-10-15T10:07:35.750Z,11.10
2022-10-15T10:10:22.558Z,12.98
2022-10-15T10:12:49.475Z,11.52
2022-10-15T10:15:22.083Z,11.48
2022-10-15T10:17:57.100Z,12.35
2022-10-15T10:20:31.052Z,12.00
2022-10-15T10:23:00.599Z,12.40
2022-10-15T10:25:27.361Z,10.98
2022-10-15T10:27:55.568Z,11.90
2022-10-15T10:32:55.098Z,11.07
2022-10-15T10:35:24.669Z,10.63
2022-10-15T10:37:52.518Z,11.18
2022-10-15T10:40:29.645Z,11.15
2022-10-15T10:43:21.454Z,12.07
2022-10-15T10:46:14.738Z,12.07
2022-10-15T10:48:44.421Z,10.98
2022-10-15T10:51:28.212Z,11.90
2022-10-15T10:54:04.477Z,11.15
2022-10-15T10:56:42.541Z,11.02
2022-10-15T11:01:44.469Z,10.07
2022-10-15T11:04:23.619Z,10.73
2022-10-15T11:07:02.113Z,11.05
2022-10-15T11:09:56.066Z,10.38
2022-10-15T11:12:44.560Z,10.57
2022-10-15T11:15:14.064Z,11.75
2022-10-15T11:17:55.816Z,10.30
2022-10-15T11:20:49.769Z,10.90
2022-10-15T11:26:51.469Z,9.70
2022-10-15T11:29:37.627Z,10.65
2022-10-15T11:32:42.141Z,11.18
2022-10-15T11:35:48.349Z,10.00
2022-10-15T11:38:36.104Z,9.50
2022-10-15T11:41:23.815Z,10.73
2022-10-15T11:43:56.574Z,10.65
2022-10-15T11:46:42.875Z,11.88
2022-10-15T11:49:28.094Z,10.07
2022-10-15T11:52:23.129Z,9.52
2022-10-15T11:55:05.266Z,9.15
2022-10-15T11:57:34.864Z,10.20
2022-10-15T12:00:33.757Z,10.60
2022-10-15T12:03:11.118Z,9.35
2022-10-15T12:05:59.110Z,10.32
2022-10-15T12:11:26.091Z,8.80
2022-10-15T12:16:47.121Z,8.93
2022-10-15T12:19:43.154Z,10.70
2022-10-15T12:22:11.693Z,9.25
2022-10-15T12:24:38.350Z,8.68
2022-10-15T12:27:20.049Z,8.93
2022-10-15T12:30:02.514Z,10.27
2022-10-15T12:32:36.195Z,8.65
2022-10-15T12:35:06.825Z,9.48
2022-10-15T12:37:36.079Z,10.02
2022-10-15T12:40:06.471Z,9.80
2022-10-15T12:42:36.832Z,8.70
2022-10-15T12:45:08.056Z,8.52
2022-10-15T12:47:54.171Z,10.77
2022-10-15T12:50:31.082Z,8.93
2022-10-15T12:53:05.559Z,8.18
2022-10-15T12:55:35.072Z,8.32
2022-10-15T12:58:34.599Z,7.68
2022-10-15T13:01:28.159Z,7.85
2022-10-15T13:03:57.427Z,9.65
2022-10-15T13:06:30.504Z,9.93
2022-10-15T13:09:12.581Z,8.55
2022-10-15T13:11:44.283Z,9.15
2022-10-15T13:14:32.738Z,9.75
2022-10-15T13:17:03.544Z,7.72
2022-10-15T13:19:46.286Z,7.88
2022-10-15T13:22:26.510Z,7.90
2022-10-15T13:24:53.899Z,8.15
2022-10-15T13:27:25.742Z,7.82
2022-10-15T13:30:14.043Z,7.00
2022-10-15T13:32:53.100Z,7.20
2022-10-15T13:35:23.605Z,10.05
2022-10-15T13:37:50.407Z,9.50
2022-10-15T13:40:26.992Z,8.82
2022-10-15T13:43:16.575Z,7.38
2022-10-15T13:45:56.588Z,8.25
2022-10-15T13:48:27.927Z,7.40
2022-10-15T13:51:05.652Z,7.25
2022-10-15T13:53:35.900Z,6.60
2022-10-15T13:56:25.427Z,7.30
2022-10-15T13:58:53.436Z,8.10
2022-10-15T14:01:24.977Z,7.35
2022-10-15T14:03:55.855Z,7.57
2022-10-15T14:06:27.530Z,7.38
2022-10-15T14:09:11.258Z,7.68
2022-10-15T14:11:39.909Z,7.18
2022-10-15T14:14:52.763Z,6.60
2022-10-15T14:17:19.431Z,6.90
2022-10-15T14:20:22.122Z,7.80
2022-10-15T14:22:49.362Z,7.60
2022-10-15T14:25:23.548Z,8.30
2022-10-15T14:27:50.838Z,7.40
2022-10-15T14:30:36.674Z,9.50
2022-10-15T14:33:03.990Z,9.85
2022-10-15T14:35:37.968Z,7.55
2022-10-15T14:38:16.335Z,7.43
2022-10-15T14:41:06.284Z,7.28
2022-10-15T14:43:37.961Z,6.85
2022-10-15T14:46:14.294Z,6.65
2022-10-15T14:48:43.617Z,6.85
2022-10-15T14:51:20.871Z,6.63
2022-10-15T14:53:47.883Z,6.80
2022-10-15T14:56:24.638Z,6.30
2022-10-15T14:58:56.758Z,7.55
2022-10-15T15:01:27.668Z,7.22
2022-10-15T15:03:56.915Z,6.75
2022-10-15T15:06:23.847Z,7.60
2022-10-15T15:08:50.731Z,6.80
2022-10-15T15:11:23.664Z,7.45
2022-10-15T15:13:51.611Z,6.10
2022-10-15T15:16:19.474Z,6.50
2022-10-15T15:18:48.481Z,6.60
2022-10-15T15:21:19.750Z,6.72
2022-10-15T15:23:48.239Z,6.47
2022-10-15T15:26:15.033Z,7.07
2022-10-15T15:28:42.286Z,7.53
2022-10-15T15:31:17.043Z,5.97
2022-10-15T15:33:43.798Z,6.45
2022-10-15T15:36:17.579Z,6.90
2022-10-15T15:38:47.492Z,7.07
2022-10-15T15:41:17.503Z,6.43
2022-10-15T15:43:45.853Z,6.30
2022-10-15T15:46:13.312Z,9.77
2022-10-15T15:48:40.615Z,8.18
2022-10-15T15:51:16.271Z,6.30
2022-10-15T15:53:43.005Z,7.93
2022-10-15T15:56:09.733Z,6.68
2022-10-15T15:58:36.494Z,7.13
2022-10-15T16:01:03.216Z,7.85
2022-10-15T16:03:29.954Z,6.20
2022-10-15T16:05:56.816Z,6.45
2022-10-15T16:08:23.503Z,6.95
2022-10-15T16:10:50.261Z,7.15
2022-10-15T16:13:17.271Z,6.47
2022-10-15T16:15:44.480Z,7.68
2022-10-15T16:18:12.144Z,5.53
2022-10-15T16:20:46.278Z,7.00
2022-10-15T16:23:16.000Z,6.22
2022-10-15T16:25:42.819Z,6.13
2022-10-15T16:28:09.567Z,6.70
2022-10-15T16:30:36.285Z,5.55
2022-10-15T16:33:03.654Z,6.97
2022-10-15T16:35:30.475Z,6.90
2022-10-15T16:37:57.198Z,6.10
2022-10-15T16:40:23.916Z,6.47
2022-10-15T16:42:50.687Z,6.78
2022-10-15T16:45:17.532Z,6.93
2022-10-15T16:47:44.372Z,6.25
2022-10-15T16:50:11.181Z,6.47
2022-10-15T16:52:37.903Z,6.10
2022-10-15T16:55:04.916Z,6.47
2022-10-15T16:57:31.663Z,5.57
2022-10-15T16:59:58.422Z,6.07
2022-10-15T17:02:25.874Z,6.32
2022-10-15T17:04:53.277Z,6.30
2022-10-15T17:07:20.479Z,6.95
2022-10-15T17:12:19.608Z,6.82
2022-10-15T17:14:51.605Z,7.50
2022-10-15T17:17:18.711Z,6.25
2022-10-15T17:19:45.460Z,7.15
2022-10-15T17:22:12.192Z,6.32
2022-10-15T17:24:38.940Z,6.72
2022-10-15T17:27:05.723Z,5.35
2022-10-15T17:29:33.874Z,5.60
2022-10-15T17:32:01.918Z,5.90
2022-10-15T17:34:28.708Z,6.15
2022-10-15T17:36:56.304Z,6.18
2022-10-15T17:39:23.744Z,6.47
2022-10-15T17:42:11.435Z,6.87
2022-10-15T17:44:38.184Z,5.20
2022-10-15T17:47:04.916Z,5.97
2022-10-15T17:49:33.777Z,6.25
2022-10-15T17:52:02.681Z,5.28
2022-10-15T17:54:29.968Z,6.32
2022-10-15T17:56:56.738Z,4.93
2022-10-15T17:59:23.510Z,5.10
2022-10-15T18:01:58.303Z,5.93
2022-10-15T18:04:27.737Z,5.60
2022-10-15T18:09:21.134Z,5.10
2022-10-15T18:11:49.083Z,5.53
2022-10-15T18:14:16.482Z,4.97
2022-10-15T18:16:43.920Z,5.68
2022-10-15T18:19:10.739Z,5.72
2022-10-15T18:21:37.522Z,6.05
2022-10-15T18:24:04.373Z,5.35
2022-10-15T18:26:32.163Z,4.80
2022-10-15T18:28:59.433Z,5.80
2022-10-15T18:31:26.513Z,5.00
2022-10-15T18:33:55.959Z,4.88
2022-10-15T18:36:26.164Z,4.95
2022-10-15T18:38:53.541Z,5.70
2022-10-15T18:41:27.878Z,5.27
2022-10-15T18:43:57.663Z,5.50
2022-10-15T18:46:25.294Z,4.63
2022-10-15T18:48:52.539Z,5.35
2022-10-15T18:51:19.677Z,4.28
2022-10-15T18:53:46.909Z,4.88
2022-10-15T18:56:14.406Z,6.10
2022-10-15T18:58:45.573Z,4.90
2022-10-15T19:01:23.730Z,4.97
2022-10-15T19:03:52.574Z,4.78
2022-10-15T19:06:22.041Z,4.82
2022-10-15T19:08:51.795Z,4.82
2022-10-15T19:11:20.126Z,4.22
2022-10-15T19:16:14.923Z,4.43
2022-10-15T19:18:43.879Z,5.07
2022-10-15T19:21:11.865Z,4.55
2022-10-15T19:23:38.743Z,5.97
2022-10-15T19:26:09.841Z,4.85
2022-10-15T19:28:37.681Z,5.00
2022-10-15T19:31:06.977Z,4.60
2022-10-15T19:33:34.340Z,4.90
2022-10-15T19:36:01.199Z,4.57
2022-10-15T19:38:28.499Z,4.47
2022-10-15T19:40:55.836Z,5.93
2022-10-15T19:43:23.761Z,5.50
2022-10-15T19:45:50.539Z,6.15
2022-10-15T19:48:19.528Z,4.05
2022-10-15T19:50:47.309Z,4.57
2022-10-15T19:53:17.967Z,4.63
2022-10-15T19:55:57.212Z,4.72
2022-10-15T19:58:24.908Z,4.80
2022-10-15T20:00:53.018Z,3.90
2022-10-15T20:03:21.056Z,4.38
2022-10-15T20:05:48.334Z,5.22
2022-10-15T20:08:15.401Z,5.73
2022-10-15T20:10:44.434Z,4.85
2022-10-15T20:13:12.037Z,5.18
2022-10-15T20:15:42.799Z,5.90
2022-10-15T20:18:09.975Z,4.25
2022-10-15T20:20:38.135Z,5.47
2022-10-15T20:23:05.017Z,4.72
2022-10-15T20:25:32.136Z,4.53
2022-10-15T20:27:58.950Z,4.45
2022-10-15T20:30:25.726Z,4.95
2022-10-15T20:32:52.502Z,4.82
2022-10-15T20:35:20.297Z,4.05
2022-10-15T20:37:47.538Z,4.25
2022-10-15T20:40:14.863Z,5.18
2022-10-15T20:42:41.610Z,4.80
2022-10-15T20:45:14.259Z,5.15
2022-10-15T20:47:48.504Z,5.30
2022-10-15T20:50:21.462Z,5.55
2022-10-15T20:52:48.849Z,4.57
2022-10-15T20:55:15.850Z,4.37
2022-10-15T20:57:42.941Z,5.10
2022-10-15T21:00:10.381Z,5.00
2022-10-15T21:02:37.114Z,5.10
2022-10-15T21:05:04.426Z,4.57
2022-10-15T21:07:31.177Z,4.93
2022-10-15T21:09:58.742Z,6.85
2022-10-15T21:12:25.899Z,4.68
2022-10-15T21:14:53.082Z,4.30
2022-10-15T21:17:19.877Z,4.10
2022-10-15T21:19:50.339Z,4.85
2022-10-15T21:22:19.718Z,4.40
2022-10-15T21:24:46.928Z,5.38
2022-10-15T21:27:13.662Z,3.90
2022-10-15T21:29:42.283Z,4.47
2022-10-15T21:32:09.605Z,3.92
2022-10-15T21:34:36.467Z,4.38
2022-10-15T21:37:03.247Z,4.70
2022-10-15T21:39:32.406Z,5.45
2022-10-15T21:41:59.158Z,4.75
2022-10-15T21:44:25.924Z,5.43
2022-10-15T21:46:52.658Z,4.65
2022-10-15T21:49:19.365Z,6.15
2022-10-15T21:51:46.512Z,5.43
2022-10-15T21:54:13.234Z,5.35
2022-10-15T21:56:40.105Z,6.03
2022-10-15T21:59:09.273Z,3.63
2022-10-15T22:01:37.881Z,5.82
2022-10-15T22:04:07.348Z,6.57
2022-10-15T22:06:35.148Z,4.38
2022-10-15T22:09:03.250Z,4.50
2022-10-15T22:11:32.984Z,4.80
2022-10-15T22:14:03.664Z,4.07
2022-10-15T22:16:33.113Z,5.07
2022-10-15T22:18:59.897Z,4.80
2022-10-15T22:21:29.556Z,4.07
2022-10-15T22:24:08.577Z,4.20
2022-10-15T22:26:38.436Z,4.00
2022-10-15T22:29:06.764Z,4.22
2022-10-15T22:31:33.986Z,5.00
2022-10-15T22:34:03.238Z,4.35
2022-10-15T22:36:31.061Z,3.90
2022-10-15T22:39:03.377Z,3.88
2022-10-15T22:41:32.431Z,3.88
2022-10-15T22:43:59.613Z,4.97
2022-10-15T22:46:27.123Z,3.90
2022-10-15T22:48:54.355Z,3.90
2022-10-15T22:51:21.259Z,4.75
2022-10-15T22:53:48.244Z,3.38
2022-10-15T22:56:17.548Z,3.95
2022-10-15T22:58:45.217Z,3.60
2022-10-15T23:01:18.270Z,3.83
2022-10-15T23:03:48.178Z,3.50
2022-10-15T23:06:15.888Z,3.90
2022-10-15T23:08:43.539Z,4.60
2022-10-15T23:11:16.353Z,3.97
2022-10-15T23:13:44.241Z,3.45
2022-10-15T23:16:16.064Z,3.38
2022-10-15T23:18:44.293Z,3.53
2022-10-15T23:23:46.091Z,4.00
2022-10-15T23:26:16.580Z,3.30
2022-10-15T23:28:44.679Z,4.43
2022-10-15T23:33:48.577Z,3.75
2022-10-15T23:36:15.411Z,3.67
2022-10-15T23:38:42.181Z,3.35
2022-10-15T23:41:10.434Z,3.33
2022-10-15T23:46:04.542Z,3.10
2022-10-15T23:48:31.674Z,4.13
2022-10-15T23:51:02.419Z,3.45
2022-10-15T23:53:32.423Z,3.47
2022-10-15T23:56:02.864Z,4.50
2022-10-15T23:58:32.073Z,3.33
